createdAt,value
2023-02-01T00:00:26.317Z,5.93
2023-02-01T00:02:55.676Z,5.81
2023-02-01T00:05:23.870Z,5.75
2023-02-01T00:07:56.098Z,5.91
2023-02-01T00:10:25.576Z,5.91
2023-02-01T00:12:54.930Z,5.91
2023-02-01T00:15:24.331Z,5.95
2023-02-01T00:17:55.640Z,5.84
2023-02-01T00:20:23.631Z,5.88
2023-02-01T00:22:51.967Z,5.89
2023-02-01T00:25:20.137Z,5.99
2023-02-01T00:27:52.508Z,5.94
2023-02-01T00:30:21.047Z,5.91
2023-02-01T00:32:49.345Z,5.90
2023-02-01T00:35:17.743Z,5.79
2023-02-01T00:37:45.892Z,5.97
2023-02-01T00:40:14.774Z,5.97
2023-02-01T00:42:42.889Z,5.96
2023-02-01T00:45:14.643Z,5.88
2023-02-01T00:47:42.819Z,5.94
2023-02-01T00:50:12.194Z,6.02
2023-02-01T00:52:40.281Z,5.90
2023-02-01T00:55:11.791Z,5.93
2023-02-01T00:57:39.889Z,5.87
2023-02-01T01:00:16.363Z,5.88
2023-02-01T01:02:45.538Z,5.97
2023-02-01T01:05:15.566Z,5.92
2023-02-01T01:07:43.658Z,5.91
2023-02-01T01:10:12.536Z,5.95
2023-02-01T01:12:41.847Z,5.99
2023-02-01T01:15:10.936Z,5.87
2023-02-01T01:17:42.461Z,6.03
2023-02-01T01:20:14.487Z,6.07
2023-02-01T01:22:42.460Z,6.03
2023-02-01T01:25:10.925Z,6.11
2023-02-01T01:27:41.037Z,6.14
2023-02-01T01:30:20.352Z,6.15
2023-02-01T01:32:55.911Z,6.12
2023-02-01T01:35:58.938Z,6.13
2023-02-01T01:38:28.831Z,6.22
2023-02-01T01:40:56.773Z,6.23
2023-02-01T01:44:13.112Z,6.22
2023-02-01T01:46:45.413Z,6.15
2023-02-01T01:49:19.708Z,6.11
2023-02-01T01:51:54.079Z,5.92
2023-02-01T01:54:26.599Z,5.85
2023-02-01T01:56:59.248Z,5.69
2023-02-01T01:59:29.734Z,5.68
2023-02-01T02:01:58.124Z,5.51
2023-02-01T02:04:28.004Z,5.63
2023-02-01T02:07:02.629Z,5.60
2023-02-01T02:09:30.819Z,5.52
2023-02-01T02:12:02.097Z,5.51
2023-02-01T02:14:30.859Z,5.31
2023-02-01T02:17:17.505Z,5.36
2023-02-01T02:20:27.702Z,5.31
2023-02-01T02:23:41.592Z,5.27
2023-02-01T02:26:36.941Z,5.25
2023-02-01T02:29:39.554Z,5.22
2023-02-01T02:32:47.577Z,5.34
2023-02-01T02:35:29.197Z,5.28
2023-02-01T02:38:12.107Z,5.25
2023-02-01T02:40:51.551Z,5.19
2023-02-01T02:43:41.516Z,5.27
2023-02-01T02:46:31.080Z,5.29
2023-02-01T02:49:07.553Z,5.25
2023-02-01T02:52:01.077Z,5.16
2023-02-01T02:54:50.040Z,5.30
2023-02-01T02:57:43.065Z,5.37
2023-02-01T03:00:32.248Z,5.31
2023-02-01T03:03:19.968Z,5.35
2023-02-01T03:05:51.572Z,5.49
2023-02-01T03:08:22.978Z,5.45
2023-02-01T03:10:55.999Z,5.41
2023-02-01T03:13:34.604Z,5.46
2023-02-01T03:16:08.913Z,5.58
2023-02-01T03:18:44.530Z,5.56
2023-02-01T03:21:18.468Z,5.61
2023-02-01T03:23:50.347Z,5.55
2023-02-01T03:26:21.759Z,5.61
2023-02-01T03:28:56.930Z,5.59
2023-02-01T03:31:26.393Z,5.54
2023-02-01T03:33:54.448Z,5.50
2023-02-01T03:36:28.107Z,5.50
2023-02-01T03:39:03.907Z,5.50
2023-02-01T03:41:39.910Z,5.46
2023-02-01T03:44:21.893Z,5.55
2023-02-01T03:46:54.002Z,5.60
2023-02-01T03:49:27.449Z,5.63
2023-02-01T03:52:02.568Z,5.59
2023-02-01T03:54:35.525Z,5.73
2023-02-01T03:57:09.300Z,5.75
2023-02-01T03:59:41.475Z,5.72
2023-02-01T04:02:10.134Z,5.63
2023-02-01T04:04:38.352Z,5.84
2023-02-01T04:07:08.937Z,5.85
2023-02-01T04:09:39.173Z,5.86
2023-02-01T04:12:07.334Z,5.76
2023-02-01T04:14:35.659Z,5.71
2023-02-01T04:17:04.119Z,5.67
2023-02-01T04:19:32.097Z,5.65
2023-02-01T04:22:00.120Z,5.57
2023-02-01T04:24:29.328Z,5.63
2023-02-01T04:27:01.080Z,5.63
2023-02-01T04:29:29.374Z,5.64
2023-02-01T04:32:00.604Z,5.67
2023-02-01T04:34:28.539Z,5.69
2023-02-01T04:36:57.679Z,5.79
2023-02-01T04:39:25.871Z,5.81
2023-02-01T04:41:55.251Z,5.82
2023-02-01T04:44:24.819Z,5.76
2023-02-01T04:46:55.320Z,5.89
2023-02-01T04:49:23.538Z,5.84
2023-02-01T04:51:53.539Z,5.94
2023-02-01T04:54:23.957Z,5.98
2023-02-01T04:56:51.855Z,5.95
2023-02-01T04:59:20.121Z,5.90
2023-02-01T05:01:49.622Z,5.82
2023-02-01T05:04:19.543Z,5.94
2023-02-01T05:06:49.610Z,5.91
2023-02-01T05:09:17.576Z,5.98
2023-02-01T05:12:14.607Z,5.98
2023-02-01T05:14:43.007Z,5.99
2023-02-01T05:17:12.466Z,6.04
2023-02-01T05:19:40.499Z,6.13
2023-02-01T05:22:08.604Z,6.00
2023-02-01T05:24:36.638Z,6.06
2023-02-01T05:27:04.863Z,6.06
2023-02-01T05:29:33.055Z,6.13
2023-02-01T05:32:19.484Z,6.05
2023-02-01T05:34:52.037Z,6.08
2023-02-01T05:37:19.930Z,6.07
2023-02-01T05:39:47.929Z,6.14
2023-02-01T05:42:15.998Z,6.12
2023-02-01T05:44:44.009Z,6.10
2023-02-01T05:47:12.097Z,6.17
2023-02-01T05:49:41.266Z,6.17
2023-02-01T05:52:10.573Z,6.24
2023-02-01T05:54:38.778Z,6.17
2023-02-01T05:57:10.307Z,6.14
2023-02-01T05:59:42.054Z,6.16
2023-02-01T06:02:11.139Z,6.22
2023-02-01T06:04:39.238Z,6.27
2023-02-01T06:07:08.115Z,6.28
2023-02-01T06:09:37.945Z,6.34
2023-02-01T06:12:07.756Z,6.11
2023-02-01T06:14:36.113Z,6.28
2023-02-01T06:17:04.031Z,6.27
2023-02-01T06:19:33.063Z,6.27
2023-02-01T06:22:00.986Z,6.32
2023-02-01T06:24:44.675Z,6.32
2023-02-01T06:27:29.310Z,6.27
2023-02-01T06:30:03.368Z,6.12
2023-02-01T06:32:32.546Z,6.04
2023-02-01T06:35:01.658Z,6.04
2023-02-01T06:37:30.425Z,6.07
2023-02-01T06:39:59.873Z,6.10
2023-02-01T06:42:27.772Z,6.07
2023-02-01T06:44:55.936Z,6.00
2023-02-01T06:47:23.880Z,5.96
2023-02-01T06:49:52.806Z,5.94
2023-02-01T06:52:21.981Z,5.98
2023-02-01T06:54:50.004Z,5.98
2023-02-01T06:57:19.817Z,5.97
2023-02-01T06:59:47.799Z,6.06
2023-02-01T07:02:15.839Z,6.09
2023-02-01T07:04:43.948Z,6.13
2023-02-01T07:07:13.274Z,6.14
2023-02-01T07:09:41.458Z,6.11
2023-02-01T07:12:10.497Z,6.09
2023-02-01T07:14:39.995Z,6.19
2023-02-01T07:17:08.191Z,6.16
2023-02-01T07:19:38.007Z,6.14
2023-02-01T07:22:06.296Z,6.16
2023-02-01T07:24:36.096Z,6.03
2023-02-01T07:27:04.142Z,6.11
2023-02-01T07:29:33.381Z,6.24
2023-02-01T07:32:03.665Z,6.30
2023-02-01T07:34:32.601Z,6.28
2023-02-01T07:37:00.733Z,6.13
2023-02-01T07:39:29.248Z,6.24
2023-02-01T07:42:01.426Z,6.22
2023-02-01T07:44:31.455Z,6.28
2023-02-01T07:46:59.518Z,6.14
2023-02-01T07:49:38.799Z,6.24
2023-02-01T07:52:14.119Z,6.15
2023-02-01T07:54:42.201Z,6.21
2023-02-01T07:57:16.307Z,6.17
2023-02-01T08:00:07.260Z,6.16
2023-02-01T08:02:37.456Z,6.15
2023-02-01T08:05:07.803Z,6.16
2023-02-01T08:07:43.236Z,6.26
2023-02-01T08:10:12.617Z,6.25
2023-02-01T08:12:48.808Z,6.22
2023-02-01T08:15:19.017Z,6.16
2023-02-01T08:17:50.006Z,6.23
2023-02-01T08:20:25.285Z,6.24
2023-02-01T08:23:02.999Z,6.23
2023-02-01T08:25:31.225Z,6.26
2023-02-01T08:27:59.403Z,6.28
2023-02-01T08:30:28.610Z,6.33
2023-02-01T08:32:57.536Z,6.35
2023-02-01T08:35:42.397Z,6.31
2023-02-01T08:38:12.154Z,6.28
2023-02-01T08:40:47.766Z,6.33
2023-02-01T08:43:21.843Z,6.33
2023-02-01T08:45:50.427Z,6.32
2023-02-01T08:48:20.523Z,6.41
2023-02-01T08:50:50.969Z,6.41
2023-02-01T08:53:20.666Z,6.23
2023-02-01T08:55:59.911Z,6.43
2023-02-01T08:58:29.032Z,6.35
2023-02-01T09:00:58.069Z,6.48
2023-02-01T09:03:27.108Z,6.38
2023-02-01T09:06:02.380Z,6.50
2023-02-01T09:08:30.402Z,6.49
2023-02-01T09:11:03.356Z,6.51
2023-02-01T09:13:31.558Z,6.44
2023-02-01T09:16:00.817Z,6.47
2023-02-01T09:18:56.081Z,6.52
2023-02-01T09:21:36.867Z,6.46
2023-02-01T09:24:05.180Z,6.44
2023-02-01T09:26:33.452Z,6.38
2023-02-01T09:29:04.480Z,6.45
2023-02-01T09:31:34.535Z,6.33
2023-02-01T09:34:02.674Z,6.35
2023-02-01T09:36:31.317Z,6.48
2023-02-01T09:39:01.285Z,6.49
2023-02-01T09:41:40.153Z,6.51
2023-02-01T09:44:19.749Z,6.40
2023-02-01T09:46:48.150Z,6.47
2023-02-01T09:49:20.676Z,6.31
2023-02-01T09:51:52.874Z,6.32
2023-02-01T09:54:26.011Z,6.17
2023-02-01T09:56:58.503Z,5.85
2023-02-01T09:59:37.522Z,5.77
2023-02-01T10:02:13.083Z,5.88
2023-02-01T10:04:41.244Z,5.91
2023-02-01T10:07:30.401Z,5.85
2023-02-01T10:10:11.838Z,5.77
2023-02-01T10:13:14.252Z,5.84
2023-02-01T10:15:54.103Z,5.80
2023-02-01T10:18:39.402Z,5.83
2023-02-01T10:21:18.249Z,5.87
2023-02-01T10:24:18.696Z,5.94
2023-02-01T10:26:53.325Z,5.87
2023-02-01T10:29:24.996Z,5.94
2023-02-01T10:31:53.559Z,5.77
2023-02-01T10:34:24.872Z,5.82
2023-02-01T10:36:57.267Z,5.78
2023-02-01T10:39:25.540Z,6.02
2023-02-01T10:41:56.847Z,6.02
2023-02-01T10:44:28.443Z,6.03
2023-02-01T10:47:00.830Z,6.00
2023-02-01T10:49:39.894Z,6.18
2023-02-01T10:52:14.683Z,6.34
2023-02-01T10:54:44.522Z,6.40
2023-02-01T10:57:43.071Z,6.35
2023-02-01T11:00:22.126Z,6.37
2023-02-01T11:02:51.248Z,6.40
2023-02-01T11:05:24.321Z,6.49
2023-02-01T11:07:56.355Z,6.43
2023-02-01T11:10:38.795Z,6.46
2023-02-01T11:13:16.976Z,6.57
2023-02-01T11:15:48.712Z,6.46
2023-02-01T11:18:19.489Z,6.29
2023-02-01T11:20:50.327Z,6.35
2023-02-01T11:23:20.528Z,6.38
2023-02-01T11:25:54.236Z,6.55
2023-02-01T11:28:31.972Z,6.48
2023-02-01T11:31:04.500Z,6.80
2023-02-01T11:33:36.123Z,6.91
2023-02-01T11:36:10.118Z,6.94
2023-02-01T11:38:38.056Z,6.92
2023-02-01T11:41:15.298Z,6.79
2023-02-01T11:43:56.391Z,6.64
2023-02-01T11:46:30.026Z,6.63
2023-02-01T11:48:59.584Z,6.64
2023-02-01T11:51:41.343Z,6.73
2023-02-01T11:54:44.757Z,6.82
2023-02-01T11:57:28.012Z,6.84
2023-02-01T12:00:10.104Z,6.84
2023-02-01T12:03:20.792Z,6.83
2023-02-01T12:05:57.965Z,6.94
2023-02-01T12:09:03.641Z,6.93
2023-02-01T12:11:45.984Z,7.20
2023-02-01T12:14:26.924Z,7.43
2023-02-01T12:17:18.999Z,7.66
2023-02-01T12:20:09.768Z,7.63
2023-02-01T12:22:51.249Z,7.32
2023-02-01T12:25:31.130Z,7.24
2023-02-01T12:28:42.066Z,7.18
2023-02-01T12:31:31.149Z,7.28
2023-02-01T12:34:18.072Z,7.52
2023-02-01T12:36:52.163Z,8.04
2023-02-01T12:39:26.420Z,8.08
2023-02-01T12:42:09.702Z,8.42
2023-02-01T12:44:45.333Z,8.30
2023-02-01T12:47:22.127Z,8.14
2023-02-01T12:50:00.321Z,7.97
2023-02-01T12:52:36.263Z,7.64
2023-02-01T12:55:12.409Z,7.70
2023-02-01T12:57:44.922Z,7.57
2023-02-01T13:00:24.793Z,7.75
2023-02-01T13:03:00.332Z,7.77
2023-02-01T13:05:39.017Z,7.64
2023-02-01T13:08:10.998Z,7.90
2023-02-01T13:10:45.704Z,7.88
2023-02-01T13:13:22.433Z,7.87
2023-02-01T13:15:59.380Z,7.95
2023-02-01T13:18:34.128Z,8.07
2023-02-01T13:21:08.415Z,8.11
2023-02-01T13:23:39.146Z,8.05
2023-02-01T13:26:08.825Z,7.97
2023-02-01T13:29:11.743Z,8.01
2023-02-01T13:31:58.959Z,7.89
2023-02-01T13:34:57.459Z,7.93
2023-02-01T13:37:52.411Z,8.10
2023-02-01T13:40:35.967Z,8.30
2023-02-01T13:43:10.551Z,8.11
2023-02-01T13:45:45.557Z,7.98
2023-02-01T13:48:23.782Z,8.02
2023-02-01T13:50:57.188Z,8.25
2023-02-01T13:53:34.084Z,8.16
2023-02-01T13:56:10.377Z,8.10
2023-02-01T13:58:40.478Z,8.13
2023-02-01T14:01:37.975Z,7.92
2023-02-01T14:04:08.834Z,7.81
2023-02-01T14:06:48.568Z,7.73
2023-02-01T14:09:34.874Z,7.78
2023-02-01T14:12:53.445Z,8.00
2023-02-01T14:15:33.363Z,8.12
2023-02-01T14:18:03.478Z,8.10
2023-02-01T14:20:46.488Z,8.20
2023-02-01T14:23:29.055Z,8.23
2023-02-01T14:26:16.521Z,8.18
2023-02-01T14:28:54.546Z,8.18
2023-02-01T14:31:44.708Z,8.22
2023-02-01T14:34:22.789Z,8.08
2023-02-01T14:36:56.394Z,8.27
2023-02-01T14:39:29.791Z,8.27
2023-02-01T14:42:04.492Z,8.36
2023-02-01T14:44:35.434Z,8.20
2023-02-01T14:47:11.085Z,8.23
2023-02-01T14:49:54.413Z,8.12
2023-02-01T14:52:25.873Z,7.86
2023-02-01T14:54:57.775Z,7.71
2023-02-01T14:57:36.903Z,7.65
2023-02-01T15:00:16.873Z,7.67
2023-02-01T15:02:45.718Z,7.61
2023-02-01T15:05:32.388Z,7.63
2023-02-01T15:08:06.111Z,7.58
2023-02-01T15:10:42.739Z,7.55
2023-02-01T15:13:21.148Z,7.57
2023-02-01T15:16:02.717Z,7.54
2023-02-01T15:18:31.682Z,7.61
2023-02-01T15:21:09.448Z,7.55
2023-02-01T15:23:49.670Z,7.56
2023-02-01T15:26:28.816Z,7.56
2023-02-01T15:28:58.705Z,7.40
2023-02-01T15:31:38.402Z,7.42
2023-02-01T15:34:06.925Z,7.43
2023-02-01T15:36:36.225Z,7.41
2023-02-01T15:39:19.083Z,7.50
2023-02-01T15:41:50.532Z,7.43
2023-02-01T15:44:34.121Z,7.34
2023-02-01T15:47:07.761Z,7.43
2023-02-01T15:49:40.034Z,7.53
2023-02-01T15:52:23.285Z,7.48
2023-02-01T15:54:54.401Z,7.47
2023-02-01T15:57:34.140Z,7.50
2023-02-01T16:00:07.844Z,7.45
2023-02-01T16:02:39.020Z,7.40
2023-02-01T16:05:27.162Z,7.38
2023-02-01T16:08:04.587Z,7.37
2023-02-01T16:10:33.722Z,7.27
2023-02-01T16:13:01.799Z,7.21
2023-02-01T16:15:33.387Z,7.13
2023-02-01T16:18:02.799Z,7.25
2023-02-01T16:20:31.407Z,7.11
2023-02-01T16:23:00.481Z,7.16
2023-02-01T16:25:29.548Z,7.03
2023-02-01T16:28:00.241Z,6.99
2023-02-01T16:30:29.722Z,6.96
2023-02-01T16:33:00.758Z,6.99
2023-02-01T16:35:32.422Z,6.95
2023-02-01T16:38:00.781Z,6.90
2023-02-01T16:40:28.786Z,6.86
2023-02-01T16:42:57.245Z,6.84
2023-02-01T16:45:25.651Z,6.79
2023-02-01T16:47:56.820Z,6.79
2023-02-01T16:50:28.637Z,6.77
2023-02-01T16:52:56.707Z,6.74
2023-02-01T16:55:25.187Z,6.70
2023-02-01T16:57:53.872Z,6.61
2023-02-01T17:00:24.909Z,6.55
2023-02-01T17:02:53.680Z,6.51
2023-02-01T17:05:22.490Z,6.52
2023-02-01T17:07:53.409Z,6.45
2023-02-01T17:10:32.830Z,6.55
2023-02-01T17:13:01.758Z,6.53
2023-02-01T17:15:36.872Z,6.49
2023-02-01T17:18:05.455Z,6.49
2023-02-01T17:20:34.063Z,6.64
2023-02-01T17:23:05.795Z,6.64
2023-02-01T17:25:34.947Z,6.59
2023-02-01T17:28:03.103Z,6.51
2023-02-01T17:30:32.091Z,6.50
2023-02-01T17:33:05.472Z,6.49
2023-02-01T17:35:38.380Z,6.57
2023-02-01T17:38:13.278Z,6.59
2023-02-01T17:40:41.313Z,6.47
2023-02-01T17:43:30.924Z,6.53
2023-02-01T17:46:04.568Z,6.51
2023-02-01T17:48:32.606Z,6.42
2023-02-01T17:51:02.041Z,6.39
2023-02-01T17:53:34.129Z,6.32
2023-02-01T17:56:02.264Z,6.52
2023-02-01T17:58:33.411Z,6.47
2023-02-01T18:01:01.659Z,6.52
2023-02-01T18:03:32.895Z,6.50
2023-02-01T18:06:01.862Z,6.46
2023-02-01T18:08:33.412Z,6.59
2023-02-01T18:11:02.892Z,6.50
2023-02-01T18:13:32.329Z,6.41
2023-02-01T18:16:02.103Z,6.39
2023-02-01T18:18:31.239Z,6.41
2023-02-01T18:21:00.199Z,6.23
2023-02-01T18:23:28.227Z,6.35
2023-02-01T18:25:57.565Z,6.49
2023-02-01T18:28:25.677Z,6.40
2023-02-01T18:30:54.801Z,6.27
2023-02-01T18:33:22.800Z,6.38
2023-02-01T18:35:51.038Z,6.33
2023-02-01T18:38:19.160Z,6.27
2023-02-01T18:40:51.435Z,6.29
2023-02-01T18:43:21.075Z,6.29
2023-02-01T18:45:50.705Z,6.23
2023-02-01T18:48:21.383Z,6.24
2023-02-01T18:50:51.933Z,6.30
2023-02-01T18:53:23.941Z,6.27
2023-02-01T18:55:52.919Z,6.19
2023-02-01T18:58:26.448Z,6.24
2023-02-01T19:00:59.593Z,6.04
2023-02-01T19:03:48.237Z,6.15
2023-02-01T19:06:19.472Z,6.05
2023-02-01T19:08:48.857Z,5.96
2023-02-01T19:11:16.858Z,6.04
2023-02-01T19:13:46.391Z,6.17
2023-02-01T19:16:15.151Z,5.85
2023-02-01T19:18:43.170Z,5.86
2023-02-01T19:21:12.811Z,5.75
2023-02-01T19:23:41.658Z,5.88
2023-02-01T19:26:12.456Z,5.81
2023-02-01T19:28:40.865Z,5.90
2023-02-01T19:31:11.349Z,5.68
2023-02-01T19:33:39.674Z,5.70
2023-02-01T19:36:09.957Z,5.46
2023-02-01T19:38:38.449Z,5.64
2023-02-01T19:41:06.771Z,5.57
2023-02-01T19:43:35.550Z,5.43
2023-02-01T19:46:03.764Z,5.53
2023-02-01T19:48:35.299Z,5.69
2023-02-01T19:51:04.247Z,5.65
2023-02-01T19:53:32.314Z,5.61
2023-02-01T19:56:01.679Z,5.63
2023-02-01T19:58:29.846Z,5.61
2023-02-01T20:00:59.751Z,5.63
2023-02-01T20:03:28.551Z,5.64
2023-02-01T20:05:59.887Z,5.63
2023-02-01T20:08:28.061Z,5.55
2023-02-01T20:10:57.771Z,5.43
2023-02-01T20:13:28.446Z,5.51
2023-02-01T20:16:00.105Z,5.37
2023-02-01T20:18:28.945Z,5.13
2023-02-01T20:20:59.291Z,5.34
2023-02-01T20:23:28.357Z,5.30
2023-02-01T20:26:02.902Z,5.20
2023-02-01T20:28:31.087Z,5.15
2023-02-01T20:31:00.301Z,5.25
2023-02-01T20:33:30.311Z,5.03
2023-02-01T20:35:59.698Z,4.94
2023-02-01T20:38:27.670Z,4.91
2023-02-01T20:41:03.103Z,4.94
2023-02-01T20:43:31.101Z,4.86
2023-02-01T20:45:59.099Z,4.80
2023-02-01T20:48:32.679Z,4.72
2023-02-01T20:51:01.939Z,4.66
2023-02-01T20:53:31.283Z,4.71
2023-02-01T20:56:00.488Z,4.64
2023-02-01T20:58:28.639Z,4.75
2023-02-01T21:00:58.474Z,4.59
2023-02-01T21:03:26.509Z,4.61
2023-02-01T21:05:58.344Z,4.56
2023-02-01T21:08:29.507Z,4.52
2023-02-01T21:10:59.879Z,4.48
2023-02-01T21:13:30.418Z,4.46
2023-02-01T21:15:59.197Z,4.38
2023-02-01T21:18:27.467Z,4.39
2023-02-01T21:20:55.898Z,4.43
2023-02-01T21:23:24.191Z,4.46
2023-02-01T21:25:53.530Z,4.42
2023-02-01T21:28:21.479Z,4.37
2023-02-01T21:30:49.318Z,4.23
2023-02-01T21:33:17.205Z,4.17
2023-02-01T21:35:45.268Z,4.26
2023-02-01T21:38:13.645Z,4.38
2023-02-01T21:40:41.614Z,4.25
2023-02-01T21:43:10.876Z,4.38
2023-02-01T21:45:43.558Z,4.31
2023-02-01T21:48:11.562Z,4.24
2023-02-01T21:50:39.414Z,4.04
2023-02-01T21:53:07.327Z,4.20
2023-02-01T21:55:41.003Z,4.20
2023-02-01T21:58:17.262Z,4.20
2023-02-01T22:00:46.554Z,4.05
2023-02-01T22:03:14.785Z,4.02
2023-02-01T22:05:43.701Z,3.98
2023-02-01T22:08:11.685Z,3.97
2023-02-01T22:10:42.147Z,4.02
2023-02-01T22:13:10.247Z,4.03
2023-02-01T22:15:40.201Z,4.02
2023-02-01T22:18:08.461Z,3.85
2023-02-01T22:20:37.811Z,4.01
2023-02-01T22:23:07.634Z,4.07
2023-02-01T22:25:36.596Z,3.98
2023-02-01T22:28:30.971Z,3.83
2023-02-01T22:30:54.329Z,3.79
2023-02-01T22:33:22.661Z,3.87
2023-02-01T22:35:51.228Z,3.87
2023-02-01T22:38:19.814Z,3.66
2023-02-01T22:40:55.829Z,3.72
2023-02-01T22:43:24.256Z,3.77
2023-02-01T22:45:55.451Z,3.64
2023-02-01T22:48:23.390Z,3.61
2023-02-01T22:50:51.283Z,3.60
2023-02-01T22:53:20.099Z,3.65
2023-02-01T22:55:51.987Z,3.72
2023-02-01T22:58:23.081Z,3.82
2023-02-01T23:00:50.966Z,3.60
2023-02-01T23:03:24.375Z,3.59
2023-02-01T23:05:52.384Z,3.55
2023-02-01T23:08:23.365Z,3.61
2023-02-01T23:10:51.497Z,3.45
2023-02-01T23:13:20.857Z,3.60
2023-02-01T23:15:51.336Z,3.59
2023-02-01T23:18:20.938Z,3.73
2023-02-01T23:20:48.833Z,3.72
2023-02-01T23:23:23.424Z,3.53
2023-02-01T23:25:51.978Z,3.35
2023-02-01T23:28:19.947Z,3.32
2023-02-01T23:30:47.837Z,3.25
2023-02-01T23:33:15.852Z,3.32
2023-02-01T23:35:59.258Z,3.10
2023-02-01T23:38:27.875Z,3.18
2023-02-01T23:40:59.404Z,3.08
2023-02-01T23:43:45.727Z,3.07
2023-02-01T23:46:15.782Z,2.90
2023-02-01T23:48:44.734Z,3.12
2023-02-01T23:51:15.537Z,3.08
2023-02-01T23:53:45.483Z,3.04
2023-02-01T23:56:21.858Z,3.08
2023-02-01T23:58:50.927Z,3.17
